Terminal Aerodrome Forecast
Issued by NWS

Home | Current Version | Previous Version | Text Only | Print | Product List | Glossary On
Versions: 1 2 3 4 5 6 7 8 9 10 11 12 13 14 15 16 17 18 19 20 21 22 23 24
000
FTUS43 KDLH 260527
TAFHYR
TAF
KHYR 260527Z 2606/2706 VRB03KT 1SM BR OVC002
      TEMPO 2606/2610 1/2SM FG OVC002
     FM261000 05004KT 1/2SM FG OVC002
     FM261400 20006KT 3SM BR BKN006
     FM261600 18005KT P6SM SCT012 SCT080=

USA.gov is the U.S. government's official web portal to all federal, state and local government web resources and services.